Sunday, March 01, 2015
08:28 UTC
  |  Log In   |  Register Free
Airport Search:

Rwj Airpark Airport
(54T)

Rwj Airpark Airport Diagram
No Airport Diagram Available

FAA data valid effective January 08, 2015 - March 05, 2015 (unless otherwise noted).

 
 
 
 
 
 
 
 
 
 
 
 
 
 

Current Aviation Weather for Rwj Airpark Airport (54T)

METAR data is unavailable for 54T. The nearest METAR location is at KEFD (18.7 nm SW from 54T).

The most recent METAR observation for KEFD was updated at: 0819
METAR Summary (Translated METAR)
KEFD
010750Z 09007KT 2SM BR OVC014 14/14 A3020
(18.7 nm SW from 54T)
KHOU
010753Z 09009KT 1 1/2SM -DZ BR OVC004 14/14 A3018 RMK AO2 SLP226 P0000 T01390139
(23.6 nm SW from 54T)
TAF Summary (Translated TAF)
KEFD
0108/0210 06009KT 3200 BR BKN013 WS020/12037KT 510204 QNH3015INS TEMPO 0117/0122 07010G15KT 4800 -TSRA OVC005CB BECMG 0123/0124 VRB06KT 4800 -DZ BR OVC005 QNH3019INS TX16/0120Z TN11/0204Z AMD 010801
KHOU
(6.7 nm NW from KEFD)
010533Z 0106/0206 08009KT 4SM -DZ BR OVC009 FM010800 07003KT 2SM -DZ BR VCSH OVC007 FM011000 06003KT 4SM -DZ BR VCSH OVC004 TEMPO 0112/0116 2SM SHRA BR FM011700 10007KT 4SM -DZ BR VCSH OVC007 FM012100 09007KT 6SM BR SCT004 OVC009 FM020300 06005KT 2SM BR OVC003
  Airport Weather Conditions for 54T

Current weather conditions are
not available for 54T


The nearest NOAA weather station
is at EFD, (18.7 nm SW from 54T)
  
 Current Weather at EFD
57° F
Fog/Mist
East winds at 8.1 mph
EFD NOAA Radar

Pressure: 30.20 in
Humidity: 100%
Wind: East at 8.1 MPH (7 KT)
Dew Point: 57.2°F
Visibility: 2.00 mi


Airport Weather Forecast for 54T

Translated METAR and TAF for KEFD
Translated METAR for KEFD (0827 UTC 01 March 2015)
found at http://aviationweather.gov/adds/metars/
 
METAR text: KEFD 010750Z 09007KT 2SM BR OVC014 14/14 A3020
Conditions at: KEFD (HOUSTON/ELLINGTO, TX, US) observed 0750 UTC 01 March 2015
Temperature: 14.0°C (57°F)
Dewpoint: 14.0°C (57°F) [RH = 100%]
Pressure (altimeter): 30.20 inches Hg (1022.8 mb)
Winds: from the E (90 degrees) at 8 MPH (7 knots; 3.6 m/s)
Visibility: 2.00 miles (3.22 km)
Ceiling: 1400 feet AGL
Clouds: overcast cloud deck at 1400 feet AGL
Weather: BR  (mist)
Translated TAF for KEFD
Forecast for: KEFD (HOUSTON/ELLINGTO, TX, US)
TAF Text: TAF AMD KEFD 0108/0210 06009KT 3200 BR BKN013 WS020/12037KT 510204 QNH3015INS
Forecast period: 0800 to 2300 UTC 01 March 2015
Forecast type: FROM: standard forecast or significant change
Winds: from the ENE (60 degrees) at 10 MPH (9 knots; 4.7 m/s)
Visibility: 1.99 miles (3.20 km)
Ceiling: 1300 feet AGL
Clouds: broken clouds at 1300 feet AGL
Wind shear: at 2000 feet ( 610 m) AGL, from the ESE (120 degrees) at 43 MPH (37 knots; 19.2 m/s)
Turbulence: Light turbulence expected at 2000 feet (609m) AGL extending to 6000 feet (1828m) AGL
Weather: BR  (mist)
TAF Text: TEMPO 0117/0122 07010G15KT 4800 -TSRA OVC005CB
Forecast period: 1700 to 2200 UTC 01 March 2015
Forecast type: TEMPORARY: The following changes expected for less than half the time period
Winds: from the ENE (70 degrees) at 12 MPH (10 knots; 5.2 m/s)
gusting to 17 MPH (15 knots; 7.8 m/s)
Visibility: 2.98 miles (4.80 km)
Ceiling: 500 feet AGL
Clouds: overcast cloud deck at 500 feet AGL
Weather: -TSRA  (light rain associated with thunderstorm(s))
TAF Text: BECMG 0123/0124 VRB06KT 4800 -DZ BR OVC005 QNH3019INS TX16/0120Z TN11/0204Z AMD 010801
Forecast period: 2300 UTC 01 March 2015 to 1000 UTC 02 March 2015
Forecast type: BECOMING: Conditions expected to become as follows by 0000 UTC 02 March 2015
Winds: variable direction winds at 7 MPH (6 knots; 3.1 m/s)
Visibility: 2.98 miles (4.80 km)
Ceiling: 500 feet AGL
Clouds: overcast cloud deck at 500 feet AGL
Weather: -DZ BR  (light drizzle, mist)

Find All Airport Services Find A Hotel Find A Rental Car Find A Golf Course Find A Restaurant $100 Hamburger



FBO's on the Field
FBO Company Facility Photos Services Transportation Aviation Fuel Prices: Prices include tax
Catering Weather Repair Courtesy Rental Type 100LL JetA JetA+ MOGAS 8087
 
Bay Area Aviation Inc

This FBO has not yet been rated
FS:Avfuel
Last Updated: Feb-02
Login to update fuel prices
SS:
Contact Bay Area Aviation IncMore FBO Information
 
Add another FBO Facility Photos Catering Weather Repair Courtesy Rental Type 100LL JetA JetA+ MOGAS 8087
Services Transportation Aviation Fuel Prices: Prices include tax


model-print
model-print
model-print
model-print